Orrington, Maine
Current Conditions -  °F | °C
As of 11:53 AM on Friday 19 Dec 2014 (Local Time) from KBGR Reporting Station
Broken Clouds Broken Clouds  
Wind Chill: 17°   Ceiling: 2500
Heat Index: 29°   Visibility: 10mi
Dew Point: 21°   Wind: 17mph
Humidity: 72%   Direction: 320°NW
Pressure: 29.88"   Gusts: NA
Location:  44.73°N, 68.83°W
Report Text: KBGR 191653Z 32015KT 10SM SCT019 BKN025 M02/M06 A2988 RMK AO2 SLP122 T10171061
Loading
Personal Weather Stations






























Interactive Weather Map New forecast layout! Learn more

10-Day Weather Forecast

Advertisements
Track Severe Weather on mobile